< Typhoon 196608 1966 Season Typhoon 196610 >
Typhoon 196609 (PHYLLIS)
General InformationTrack Information on Google Maps || Disaster Info.ResourceGoogle EarthGE AnimationAtom FeedGeoJSON
Detalied Best Track (Time Zone = UTC)
Year Month Day Hour Lat. Long. Pressure (hPa) Wind (kt) Class Image Chart
1966 7 29 06 11.0 112.5 1004 0 2 -- Chart
1966 7 29 12 11.2 113.4 1004 0 2 -- Chart
1966 7 29 18 11.5 114.0 1002 0 2 -- Chart
1966 7 30 00 11.9 114.9 1002 0 2 -- Chart
1966 7 30 06 12.5 115.3 1002 0 2 -- Chart
1966 7 30 12 13.0 115.0 1000 0 2 -- Chart
1966 7 30 18 13.5 114.6 1000 0 2 -- Chart
1966 7 31 00 14.0 114.0 1000 0 2 -- Chart
1966 7 31 06 14.5 113.3 1000 0 2 -- Chart
1966 7 31 12 15.0 112.7 1000 0 2 -- Chart
1966 7 31 18 15.5 112.1 1000 0 2 -- Chart
1966 8 1 00 16.0 111.2 1000 0 2 -- Chart
1966 8 1 06 16.8 110.6 1000 0 2 -- Chart
1966 8 1 12 17.5 109.7 1000 0 2 -- Chart
1966 8 1 18 18.2 108.9 1000 0 2 -- Chart
1966 8 2 00 18.7 108.0 1000 0 2 -- Chart
1966 8 2 06 19.1 107.1 1000 0 9 -- Chart
1966 8 2 12 19.7 106.5 1000 0 9 -- Chart
1966 8 2 18 20.2 106.1 1000 0 2 -- Chart
1966 8 3 00 21.0 105.6 1002 0 2 -- Chart
1966 8 3 06 22.5 104.8 1002 0 2 -- Chart
1966 8 3 12 22.5 103.1 1003 0 2 -- Chart
1966 8 3 18 22.0 101.1 1004 0 2 -- Chart
Japan Meteorological Agency Best Track Data | Correction Date : 1989-06-01
< Typhoon 196608 1966 Season Typhoon 196610 >

Help